Time;durP1;ratioP1;P1;durP2;ratioP2;P2;SDS_P1;SDS_P2;PMS_P1;PMS_P2;Temp;Humidity;BMP_temperature;BMP_pressure;BME280_temperature;BME280_humidity;BME280_pressure;Samples;Min_cycle;Max_cycle;Signal;HPM_P1;HPM_P2
2024/02/08 00:00:44;;;;;;;5.90;4.00;;;5.30;99.90;;;;;;5071833;28;20174;-72
2024/02/08 00:03:11;;;;;;;4.47;4.07;;;5.40;99.90;;;;;;5071970;28;20166;-72
2024/02/08 00:05:37;;;;;;;7.00;4.87;;;5.40;99.90;;;;;;5071855;28;20190;-72
2024/02/08 00:08:08;;;;;;;6.17;4.10;;;5.40;99.90;;;;;;5071780;28;20442;-72
2024/02/08 00:10:33;;;;;;;6.47;3.83;;;5.40;99.90;;;;;;5072175;28;20396;-72
2024/02/08 00:12:59;;;;;;;8.57;4.53;;;5.40;99.90;;;;;;5075132;28;20419;-72
2024/02/08 00:15:29;;;;;;;8.30;4.30;;;5.40;99.90;;;;;;5072019;28;20182;-72
2024/02/08 00:17:56;;;;;;;7.17;3.37;;;5.50;99.90;;;;;;5071274;28;20173;-72
2024/02/08 00:20:23;;;;;;;4.40;3.73;;;5.50;99.90;;;;;;5071735;28;20412;-72
2024/02/08 00:22:52;;;;;;;4.83;3.90;;;5.50;99.90;;;;;;5071875;28;20408;-72
2024/02/08 00:25:18;;;;;;;7.97;4.13;;;5.50;99.90;;;;;;5071584;28;20407;-72
2024/02/08 00:27:46;;;;;;;5.60;4.57;;;5.50;99.90;;;;;;5071674;28;20405;-72
2024/02/08 00:30:15;;;;;;;6.80;5.30;;;5.50;99.90;;;;;;5070221;28;20417;-71
2024/02/08 00:32:41;;;;;;;6.87;5.03;;;5.50;99.90;;;;;;5071799;28;20424;-72
2024/02/08 00:35:07;;;;;;;5.80;4.53;;;5.50;99.90;;;;;;5071659;28;20870;-72
2024/02/08 00:37:33;;;;;;;5.10;4.60;;;5.50;99.90;;;;;;5071709;28;20432;-72
2024/02/08 00:39:58;;;;;;;5.60;4.60;;;5.50;99.90;;;;;;5071442;28;20507;-72
2024/02/08 00:42:24;;;;;;;4.20;3.50;;;5.50;99.90;;;;;;5071697;28;20253;-71
2024/02/08 00:44:50;;;;;;;5.00;3.73;;;5.50;99.90;;;;;;5071968;28;20226;-72
2024/02/08 00:47:15;;;;;;;3.87;3.27;;;5.40;99.90;;;;;;5070169;28;20685;-72
2024/02/08 00:49:41;;;;;;;6.63;4.80;;;5.50;99.90;;;;;;5071377;28;20400;-71
2024/02/08 00:52:08;;;;;;;5.27;3.77;;;5.50;99.90;;;;;;5071412;28;20162;-72
2024/02/08 00:54:35;;;;;;;7.97;5.30;;;5.40;99.90;;;;;;5065509;28;20305;-72
2024/02/08 00:57:07;;;;;;;5.43;4.23;;;5.50;99.90;;;;;;5071408;28;20874;-72
2024/02/08 00:59:39;;;;;;;8.47;5.37;;;5.40;99.90;;;;;;5069735;28;20416;-71
2024/02/08 01:02:05;;;;;;;9.57;5.43;;;5.40;99.90;;;;;;5069952;28;20412;-72
2024/02/08 01:04:34;;;;;;;9.90;5.30;;;5.40;99.90;;;;;;5071526;28;20921;-72
2024/02/08 01:07:00;;;;;;;7.50;5.70;;;5.40;99.90;;;;;;5070223;28;20543;-72
2024/02/08 01:09:26;;;;;;;13.90;6.30;;;5.40;99.90;;;;;;5071129;28;20938;-72
2024/02/08 01:11:51;;;;;;;5.80;4.90;;;5.30;99.90;;;;;;5071315;28;20690;-72
2024/02/08 01:14:21;;;;;;;9.37;6.13;;;5.40;99.90;;;;;;5071354;28;20396;-72
2024/02/08 01:16:50;;;;;;;7.83;5.77;;;5.40;99.90;;;;;;5071235;28;20621;-72
2024/02/08 01:19:16;;;;;;;8.10;5.97;;;5.50;99.90;;;;;;5070710;28;20910;-72
2024/02/08 01:21:43;;;;;;;7.67;5.93;;;5.40;99.90;;;;;;5071471;28;20461;-72
2024/02/08 01:24:09;;;;;;;8.00;6.90;;;5.50;99.90;;;;;;5071392;28;20845;-72
2024/02/08 01:26:35;;;;;;;7.50;6.10;;;5.50;99.90;;;;;;5071265;28;20531;-72
2024/02/08 01:29:05;;;;;;;7.40;5.70;;;5.50;99.90;;;;;;5072940;28;20404;-72
2024/02/08 01:31:32;;;;;;;8.50;6.30;;;5.60;99.90;;;;;;5074905;28;20163;-72
2024/02/08 01:33:57;;;;;;;7.43;5.90;;;5.60;99.90;;;;;;5074769;28;20896;-72
2024/02/08 01:36:23;;;;;;;7.90;6.00;;;5.60;99.90;;;;;;5073538;28;20435;-72
2024/02/08 01:38:51;;;;;;;6.00;5.40;;;5.60;99.90;;;;;;5074684;28;20189;-72
2024/02/08 01:41:17;;;;;;;9.47;6.80;;;5.60;99.90;;;;;;5074777;28;20400;-72
2024/02/08 01:43:42;;;;;;;9.73;5.67;;;5.70;99.90;;;;;;5074651;28;20404;-72
2024/02/08 01:46:09;;;;;;;10.17;6.97;;;5.70;99.90;;;;;;5074490;28;20239;-72
2024/02/08 01:48:34;;;;;;;10.10;6.90;;;5.70;99.90;;;;;;5074398;28;20536;-72
2024/02/08 01:51:02;;;;;;;6.63;5.87;;;5.70;99.90;;;;;;5074580;28;20407;-72
2024/02/08 01:53:28;;;;;;;11.40;6.50;;;5.80;99.90;;;;;;5073095;28;20265;-72
2024/02/08 01:55:59;;;;;;;7.70;5.50;;;5.80;99.90;;;;;;5070297;28;20436;-72
2024/02/08 01:58:26;;;;;;;11.03;7.00;;;5.80;99.90;;;;;;5074033;28;20431;-72
2024/02/08 02:00:52;;;;;;;8.60;6.37;;;5.80;99.90;;;;;;5071043;28;20419;-72
2024/02/08 02:03:19;;;;;;;10.90;7.70;;;5.90;99.90;;;;;;5074044;28;20409;-72
2024/02/08 02:05:48;;;;;;;10.27;7.03;;;5.90;99.90;;;;;;5072975;28;20525;-72
2024/02/08 02:08:21;;;;;;;18.50;7.50;;;5.90;99.90;;;;;;5073869;28;20407;-72
2024/02/08 02:11:14;;;;;;;10.57;7.20;;;5.90;99.90;;;;;;5074386;28;20389;-72
2024/02/08 02:13:42;;;;;;;7.27;6.27;;;5.90;99.90;;;;;;5074017;28;20409;-72
2024/02/08 02:16:08;;;;;;;9.60;6.37;;;6.00;99.90;;;;;;5074037;28;20416;-72
2024/02/08 02:18:33;;;;;;;8.80;6.73;;;6.00;99.90;;;;;;5073574;28;20439;-72
2024/02/08 02:20:59;;;;;;;12.83;7.40;;;6.00;99.90;;;;;;5074030;28;20408;-72
2024/02/08 02:23:25;;;;;;;10.00;7.40;;;5.90;99.90;;;;;;5073895;28;20194;-72
2024/02/08 02:25:51;;;;;;;10.60;7.80;;;6.00;99.90;;;;;;5073787;28;20284;-72
2024/02/08 02:28:18;;;;;;;14.50;7.50;;;6.00;99.90;;;;;;5073619;28;20668;-72
2024/02/08 02:30:44;;;;;;;9.93;7.00;;;6.00;99.90;;;;;;5072532;28;20435;-72
2024/02/08 02:33:14;;;;;;;10.57;6.90;;;6.00;99.90;;;;;;5073502;28;20412;-72
2024/02/08 02:35:48;;;;;;;10.37;6.83;;;6.00;99.90;;;;;;5073679;28;20424;-72
2024/02/08 02:38:17;;;;;;;11.47;6.90;;;6.00;99.90;;;;;;5072101;28;20467;-72
2024/02/08 02:40:46;;;;;;;8.63;5.87;;;5.90;99.90;;;;;;5072997;28;20400;-72
2024/02/08 02:43:15;;;;;;;6.00;4.93;;;5.90;99.90;;;;;;5073523;28;20409;-72
2024/02/08 02:45:41;;;;;;;6.40;5.80;;;5.90;99.90;;;;;;5073362;28;20556;-72
2024/02/08 02:48:07;;;;;;;10.53;6.33;;;5.90;99.90;;;;;;5073246;28;20424;-72
2024/02/08 02:50:33;;;;;;;8.60;5.87;;;5.90;99.90;;;;;;5073408;28;20163;-72
2024/02/08 02:52:59;;;;;;;10.93;6.70;;;5.90;99.90;;;;;;5071946;28;20947;-72
2024/02/08 02:55:25;;;;;;;8.43;5.80;;;5.90;99.90;;;;;;5067239;28;20439;-72
2024/02/08 02:57:51;;;;;;;8.43;5.80;;;5.90;99.90;;;;;;5059832;28;20202;-72
2024/02/08 03:00:24;;;;;;;7.93;5.77;;;5.90;99.90;;;;;;5072449;28;20493;-72
2024/02/08 03:02:57;;;;;;;8.10;6.13;;;5.90;99.90;;;;;;5072945;28;20664;-72
2024/02/08 03:05:24;;;;;;;9.03;7.90;;;5.80;99.90;;;;;;5072826;28;20425;-72
2024/02/08 03:07:53;;;;;;;10.77;8.30;;;5.70;99.90;;;;;;5071653;28;20405;-72
2024/02/08 03:10:21;;;;;;;9.17;7.00;;;5.70;99.90;;;;;;5072530;28;20412;-72
2024/02/08 03:12:51;;;;;;;17.37;9.73;;;5.70;99.90;;;;;;5072693;28;20412;-72
2024/02/08 03:15:19;;;;;;;9.20;7.43;;;5.70;99.90;;;;;;5072853;28;20489;-72
2024/02/08 03:17:46;;;;;;;14.87;9.47;;;5.70;99.90;;;;;;5072809;28;20404;-72
2024/02/08 03:20:16;;;;;;;14.37;8.23;;;5.70;99.90;;;;;;5071226;28;20448;-72
2024/02/08 03:22:43;;;;;;;13.80;7.20;;;5.70;99.90;;;;;;5071462;28;20412;-72
2024/02/08 03:25:14;;;;;;;12.90;7.53;;;5.70;99.90;;;;;;5072487;28;20400;-72
2024/02/08 03:27:41;;;;;;;10.40;7.07;;;5.70;99.90;;;;;;5072603;28;20451;-72
2024/02/08 03:30:19;;;;;;;15.00;6.27;;;5.70;99.90;;;;;;5072402;28;20407;-72
2024/02/08 03:32:46;;;;;;;11.80;8.00;;;5.80;99.90;;;;;;5071374;28;20825;-72
2024/02/08 03:35:12;;;;;;;12.40;8.17;;;5.80;99.90;;;;;;5072526;28;20887;-72
2024/02/08 03:37:37;;;;;;;12.10;7.50;;;5.80;99.90;;;;;;5072441;28;20408;-72
2024/02/08 03:40:04;;;;;;;12.50;8.07;;;5.80;99.90;;;;;;5072281;28;20169;-72
2024/02/08 03:42:29;;;;;;;17.77;10.43;;;5.80;99.90;;;;;;5072323;28;20170;-71
2024/02/08 03:44:55;;;;;;;21.47;14.17;;;5.70;99.90;;;;;;5071145;28;20421;-72
2024/02/08 03:47:21;;;;;;;13.60;9.60;;;5.80;99.90;;;;;;5072174;28;20198;-72
2024/02/08 03:49:51;;;;;;;14.00;8.13;;;5.70;99.90;;;;;;5072162;28;20169;-72
2024/02/08 03:52:19;;;;;;;10.37;7.33;;;5.60;99.90;;;;;;5071211;28;20253;-72
2024/02/08 03:54:48;;;;;;;9.97;7.13;;;5.70;99.90;;;;;;5066584;28;20453;-72
2024/02/08 03:57:13;;;;;;;10.53;7.53;;;5.60;99.90;;;;;;5072045;28;20468;-72
2024/02/08 03:59:40;;;;;;;11.63;7.50;;;5.60;99.90;;;;;;5070475;28;20432;-72
2024/02/08 04:02:09;;;;;;;10.90;7.47;;;5.70;99.90;;;;;;5070739;28;20186;-72
2024/02/08 04:10:29;;;;;;;11.30;8.23;;;5.70;99.90;;;;;;5050426;28;20431;-72
2024/02/08 04:53:57;;;;;;;16.07;9.40;;;5.80;99.90;;;;;;5071490;28;20481;-72
2024/02/08 04:56:23;;;;;;;15.93;9.40;;;5.70;99.90;;;;;;5071577;28;20424;-72
2024/02/08 04:58:50;;;;;;;15.83;10.30;;;5.70;99.90;;;;;;5070921;28;20414;-72
2024/02/08 05:01:17;;;;;;;16.43;9.40;;;5.70;99.90;;;;;;5070196;28;20174;-72
2024/02/08 05:03:43;;;;;;;14.60;9.57;;;5.60;99.90;;;;;;5072055;28;20474;-72
2024/02/08 05:06:11;;;;;;;15.17;8.07;;;5.60;99.90;;;;;;5074199;28;20993;-71
2024/02/08 05:08:43;;;;;;;19.40;9.47;;;5.60;99.90;;;;;;5073870;28;20400;-72
2024/02/08 05:11:10;;;;;;;22.40;8.30;;;5.60;99.90;;;;;;5075375;28;20439;-72
2024/02/08 05:13:39;;;;;;;14.10;8.83;;;5.60;99.90;;;;;;5075148;28;20400;-72
2024/02/08 05:16:14;;;;;;;17.17;10.23;;;5.70;99.90;;;;;;5075146;28;20527;-72
2024/02/08 05:18:47;;;;;;;15.70;9.77;;;5.70;99.90;;;;;;5074716;28;21031;-72
2024/02/08 05:21:15;;;;;;;13.90;10.23;;;5.70;99.90;;;;;;5075109;28;20412;-72
2024/02/08 05:23:41;;;;;;;13.57;8.30;;;5.70;99.90;;;;;;5075304;28;21093;-72
2024/02/08 05:26:10;;;;;;;11.70;8.30;;;5.70;99.90;;;;;;5074940;28;20467;-72
2024/02/08 05:28:38;;;;;;;14.73;8.10;;;5.80;99.90;;;;;;5074635;28;20805;-72
2024/02/08 05:31:08;;;;;;;15.53;10.00;;;5.80;99.90;;;;;;5074967;28;20400;-72
2024/02/08 05:33:33;;;;;;;14.50;9.40;;;5.80;99.90;;;;;;5074821;28;20400;-71
2024/02/08 05:36:00;;;;;;;12.73;9.23;;;5.80;99.90;;;;;;5074752;28;20435;-72
2024/02/08 05:38:26;;;;;;;15.50;9.07;;;5.80;99.90;;;;;;5074508;28;20162;-72
2024/02/08 05:40:52;;;;;;;14.77;9.77;;;5.70;99.90;;;;;;5074656;28;20415;-72
2024/02/08 05:43:28;;;;;;;17.50;10.03;;;5.60;99.90;;;;;;5074647;28;20184;-72
2024/02/08 05:45:54;;;;;;;11.30;8.67;;;5.60;99.90;;;;;;5074561;28;20869;-72
2024/02/08 05:48:23;;;;;;;24.97;14.67;;;5.60;99.90;;;;;;5074323;28;20490;-71
2024/02/08 05:50:55;;;;;;;18.87;12.47;;;5.60;99.90;;;;;;5074527;28;20401;-71
2024/02/08 05:53:20;;;;;;;14.53;9.43;;;5.60;99.90;;;;;;5074633;28;20508;-72
2024/02/08 05:55:48;;;;;;;14.20;9.80;;;5.70;99.90;;;;;;5074311;28;20514;-71
2024/02/08 05:58:18;;;;;;;18.73;10.20;;;5.70;99.90;;;;;;5074048;28;20168;-72
2024/02/08 06:00:52;;;;;;;15.10;8.23;;;5.70;99.90;;;;;;5073016;28;20451;-72
2024/02/08 06:03:33;;;;;;;12.27;7.73;;;5.70;99.90;;;;;;5073083;28;20416;-72
2024/02/08 06:06:06;;;;;;;14.60;7.20;;;5.70;99.90;;;;;;5074216;28;20448;-72
2024/02/08 06:08:42;;;;;;;12.70;8.47;;;5.70;99.90;;;;;;5074024;28;20392;-72
2024/02/08 06:11:19;;;;;;;14.53;8.70;;;5.70;99.90;;;;;;5074256;28;20458;-72
2024/02/08 06:13:58;;;;;;;11.13;6.63;;;5.70;99.90;;;;;;5074048;28;20433;-71
2024/02/08 06:16:33;;;;;;;11.60;7.27;;;5.70;99.90;;;;;;5073137;28;20419;-72
2024/02/08 06:19:02;;;;;;;13.60;9.07;;;5.70;99.90;;;;;;5073967;28;20475;-72
2024/02/08 06:21:47;;;;;;;12.80;8.90;;;5.70;99.90;;;;;;5073959;28;20903;-72
2024/02/08 06:26:58;;;;;;;14.73;8.93;;;5.70;99.90;;;;;;5073941;28;20451;-72
2024/02/08 06:29:42;;;;;;;15.80;8.37;;;5.70;99.90;;;;;;5073671;28;20395;-72
2024/02/08 06:32:23;;;;;;;12.20;8.70;;;5.70;99.90;;;;;;5073834;28;20854;-72
2024/02/08 06:35:11;;;;;;;13.90;9.63;;;5.70;99.90;;;;;;5072426;28;20408;-72
2024/02/08 06:37:44;;;;;;;14.67;8.70;;;5.70;99.90;;;;;;5073633;28;20407;-72
2024/02/08 06:40:21;;;;;;;13.97;8.37;;;5.80;99.90;;;;;;5073441;28;20404;-72
2024/02/08 06:45:25;;;;;;;16.77;9.83;;;5.80;99.90;;;;;;5073500;28;20776;-72
2024/02/08 07:39:46;;;;;;;14.63;8.50;;;5.80;99.90;;;;;;5072309;28;20488;-72
2024/02/08 07:42:17;;;;;;;42.50;17.83;;;5.70;99.90;;;;;;5072267;28;20399;-71
2024/02/08 07:44:48;;;;;;;12.97;8.97;;;5.70;99.90;;;;;;5072211;28;20401;-72
2024/02/08 07:47:17;;;;;;;13.27;7.30;;;5.70;99.90;;;;;;5070588;28;20452;-72
2024/02/08 07:49:42;;;;;;;11.37;7.57;;;5.80;99.90;;;;;;5071742;28;20404;-67
2024/02/08 07:52:19;;;;;;;10.73;8.90;;;5.90;99.90;;;;;;5071943;28;20397;-67
2024/02/08 07:55:14;;;;;;;15.57;7.93;;;6.00;99.90;;;;;;5072031;28;20632;-67
2024/02/08 07:57:36;;;;;;;11.40;6.37;;;5.90;99.90;;;;;;5071927;28;20416;-67
2024/02/08 08:00:07;;;;;;;14.07;7.90;;;5.90;99.90;;;;;;5071651;28;20400;-66
2024/02/08 08:02:35;;;;;;;14.17;7.07;;;5.90;99.90;;;;;;5071829;28;20173;-66
2024/02/08 08:05:03;;;;;;;10.07;6.83;;;6.00;99.90;;;;;;5071844;28;20408;-67
2024/02/08 08:07:28;;;;;;;12.77;7.17;;;6.00;99.90;;;;;;5071719;28;20463;-67
2024/02/08 08:10:08;;;;;;;12.23;8.63;;;6.00;99.90;;;;;;5070126;28;20408;-67
2024/02/08 08:12:37;;;;;;;10.30;6.27;;;6.10;99.90;;;;;;5071772;28;20154;-67
2024/02/08 08:17:40;;;;;;;10.00;7.10;;;6.30;99.90;;;;;;5069140;28;21007;-66
2024/02/08 08:20:15;;;;;;;9.20;5.93;;;6.40;99.90;;;;;;5067724;28;20412;-66
2024/02/08 08:22:58;;;;;;;8.50;5.53;;;6.50;99.90;;;;;;5065317;28;20428;-66
2024/02/08 08:25:44;;;;;;;9.47;6.00;;;6.60;99.90;;;;;;5065210;28;20792;-67
2024/02/08 08:28:29;;;;;;;9.10;6.40;;;6.60;99.90;;;;;;5063192;28;20432;-67
2024/02/08 08:31:00;;;;;;;13.20;6.70;;;6.70;99.90;;;;;;5071410;28;20432;-67
2024/02/08 08:39:46;;;;;;;18.60;9.10;;;6.90;99.90;;;;;;5073331;28;20392;-67
2024/02/08 08:41:46;;;;;;;10.43;6.40;;;7.00;99.90;;;;;;5062810;28;20850;-66
2024/02/08 08:44:15;;;;;;;8.60;5.53;;;7.00;99.90;;;;;;5057919;28;20416;-66
2024/02/08 08:46:41;;;;;;;9.77;6.30;;;6.90;99.90;;;;;;5064139;28;20474;-67
2024/02/08 08:49:08;;;;;;;16.93;5.53;;;6.90;99.90;;;;;;5074666;28;20474;-67
2024/02/08 08:51:34;;;;;;;9.07;5.70;;;6.80;99.90;;;;;;5075411;28;20403;-67
2024/02/08 08:54:14;;;;;;;8.93;5.33;;;6.70;99.90;;;;;;5075165;28;20416;-67
2024/02/08 08:56:42;;;;;;;10.77;6.27;;;6.70;99.90;;;;;;5075239;28;20195;-67
2024/02/08 08:59:08;;;;;;;8.60;5.10;;;6.80;99.90;;;;;;5071637;28;20412;-67
2024/02/08 09:01:39;;;;;;;7.00;4.30;;;6.80;99.90;;;;;;5075187;28;20427;-67
2024/02/08 09:04:25;;;;;;;7.90;5.00;;;6.80;99.90;;;;;;5074167;28;20224;-67
2024/02/08 09:06:52;;;;;;;5.63;4.17;;;6.70;99.90;;;;;;5066772;28;20845;-66
2024/02/08 09:09:28;;;;;;;8.60;5.27;;;6.80;99.90;;;;;;5059552;28;20421;-67
2024/02/08 09:12:00;;;;;;;6.93;5.50;;;6.70;99.90;;;;;;5065908;28;20400;-66
2024/02/08 09:14:30;;;;;;;10.50;5.17;;;6.70;99.90;;;;;;5074746;28;20403;-67
2024/02/08 09:16:57;;;;;;;8.30;4.40;;;6.80;99.90;;;;;;5074691;28;20439;-67
2024/02/08 09:19:27;;;;;;;8.53;5.23;;;6.80;99.90;;;;;;5074757;28;20401;-66
2024/02/08 09:21:58;;;;;;;9.47;5.33;;;6.80;99.90;;;;;;5073630;28;20432;-67
2024/02/08 09:24:27;;;;;;;7.70;5.10;;;6.80;99.90;;;;;;5073098;28;20503;-67
2024/02/08 09:27:15;;;;;;;5.63;4.37;;;6.90;99.90;;;;;;5074364;28;20452;-67
2024/02/08 09:29:42;;;;;;;6.37;5.13;;;6.80;99.90;;;;;;5070407;28;20475;-66
2024/02/08 09:32:15;;;;;;;8.10;4.40;;;6.80;99.90;;;;;;5074436;28;20896;-66
2024/02/08 09:34:40;;;;;;;6.07;4.43;;;6.80;99.90;;;;;;5074458;28;20406;-67
2024/02/08 09:37:15;;;;;;;4.60;4.03;;;6.80;99.90;;;;;;5074353;28;20507;-67
2024/02/08 09:39:53;;;;;;;7.40;5.07;;;6.80;99.90;;;;;;5074321;28;20185;-66
2024/02/08 09:42:29;;;;;;;6.17;4.50;;;6.70;99.90;;;;;;5074329;28;20411;-66
2024/02/08 09:45:13;;;;;;;6.30;4.23;;;6.60;99.90;;;;;;5074260;28;20408;-66
2024/02/08 09:47:44;;;;;;;6.30;3.97;;;6.60;99.90;;;;;;5073315;28;20451;-66
2024/02/08 09:50:21;;;;;;;5.53;4.30;;;6.50;99.90;;;;;;5062520;28;20427;-66
2024/02/08 09:52:56;;;;;;;5.93;4.80;;;6.40;99.90;;;;;;5073647;28;20424;-67
2024/02/08 09:55:24;;;;;;;6.97;5.13;;;6.30;99.90;;;;;;5067492;28;20409;-67
2024/02/08 09:57:53;;;;;;;8.80;5.97;;;6.20;99.90;;;;;;5064679;28;20601;-67
2024/02/08 10:00:54;;;;;;;8.50;5.37;;;6.10;99.90;;;;;;5073784;28;20462;-67
2024/02/08 10:03:31;;;;;;;7.20;4.50;;;6.10;99.90;;;;;;5074108;28;20964;-67
2024/02/08 10:06:00;;;;;;;8.37;3.90;;;6.20;99.90;;;;;;5074112;28;20455;-67
2024/02/08 10:08:28;;;;;;;10.70;4.80;;;6.10;99.90;;;;;;5073793;28;20405;-67
2024/02/08 10:11:23;;;;;;;8.00;5.03;;;6.10;99.90;;;;;;5074036;28;20408;-67
2024/02/08 10:14:02;;;;;;;8.67;4.27;;;6.20;99.90;;;;;;5073869;28;20483;-67
2024/02/08 10:16:43;;;;;;;9.13;4.50;;;6.10;99.90;;;;;;5073615;28;20436;-67
2024/02/08 10:19:27;;;;;;;6.47;4.33;;;6.00;99.90;;;;;;5073616;28;20938;-67
2024/02/08 10:21:57;;;;;;;8.37;4.80;;;6.00;99.90;;;;;;5073679;28;20404;-67
2024/02/08 10:24:44;;;;;;;5.47;3.70;;;6.00;99.90;;;;;;5073684;28;20408;-67
2024/02/08 10:27:19;;;;;;;4.63;3.43;;;5.90;99.90;;;;;;5073546;28;20455;-68
2024/02/08 10:30:00;;;;;;;9.20;5.03;;;6.00;99.90;;;;;;5073419;28;20427;-68
2024/02/08 10:32:29;;;;;;;5.93;3.97;;;6.00;99.90;;;;;;5073600;28;20389;-68
2024/02/08 10:35:13;;;;;;;7.27;5.10;;;6.00;99.90;;;;;;5073540;28;20475;-68
2024/02/08 10:37:47;;;;;;;10.33;4.13;;;6.00;99.90;;;;;;5073505;28;20400;-68
2024/02/08 10:40:29;;;;;;;6.03;3.60;;;6.00;99.90;;;;;;5071982;28;20412;-68
2024/02/08 10:43:16;;;;;;;6.93;3.97;;;6.00;99.90;;;;;;5073506;28;20906;-68
2024/02/08 10:46:02;;;;;;;5.40;4.33;;;5.90;99.90;;;;;;5073367;28;20843;-68
2024/02/08 10:48:28;;;;;;;9.43;4.53;;;5.90;99.90;;;;;;5073241;28;20461;-68
2024/02/08 10:51:02;;;;;;;6.83;3.80;;;6.00;99.90;;;;;;5073268;28;20408;-68
2024/02/08 10:53:43;;;;;;;5.60;3.87;;;5.90;99.90;;;;;;5073270;28;20428;-68
2024/02/08 10:56:14;;;;;;;6.07;4.27;;;5.90;99.90;;;;;;5073274;28;20518;-68
2024/02/08 11:01:37;;;;;;;6.60;4.00;;;6.00;99.90;;;;;;5072771;28;20407;-68
2024/02/08 11:04:20;;;;;;;5.23;4.00;;;6.00;99.90;;;;;;5073274;28;20408;-68
2024/02/08 11:07:06;;;;;;;6.53;4.00;;;6.00;99.90;;;;;;5072914;28;20826;-68
2024/02/08 11:09:32;;;;;;;7.80;3.77;;;6.00;99.90;;;;;;5072760;28;20759;-68
2024/02/08 11:12:08;;;;;;;4.50;3.27;;;5.90;99.90;;;;;;5072838;28;20828;-68
2024/02/08 11:14:53;;;;;;;6.50;4.30;;;6.00;99.90;;;;;;5072925;28;20770;-68
2024/02/08 11:17:22;;;;;;;4.70;4.27;;;6.00;99.90;;;;;;5072806;28;20420;-68
2024/02/08 11:19:56;;;;;;;7.80;3.90;;;6.00;99.90;;;;;;5072476;28;20408;-68
2024/02/08 11:25:33;;;;;;;4.07;2.60;;;6.10;99.90;;;;;;5049236;28;20424;-68
2024/02/08 11:28:13;;;;;;;6.50;4.07;;;6.00;99.90;;;;;;5072640;28;20505;-68
2024/02/08 11:30:39;;;;;;;4.13;2.80;;;6.10;99.90;;;;;;5072621;28;20399;-68
2024/02/08 11:33:12;;;;;;;7.83;3.37;;;6.10;99.90;;;;;;5072516;28;20409;-68
2024/02/08 11:35:45;;;;;;;6.90;4.53;;;6.20;99.90;;;;;;5072385;28;20439;-68
2024/02/08 11:38:21;;;;;;;7.30;4.20;;;6.30;99.90;;;;;;5072277;28;20412;-68
2024/02/08 11:40:47;;;;;;;4.80;3.13;;;6.40;99.90;;;;;;5072419;28;20462;-68
2024/02/08 11:43:19;;;;;;;3.23;2.93;;;6.40;99.90;;;;;;5072800;28;20455;-68
2024/02/08 11:46:04;;;;;;;4.90;3.73;;;6.50;99.90;;;;;;5072112;28;20428;-68
2024/02/08 11:48:33;;;;;;;7.10;3.67;;;6.60;99.90;;;;;;5071916;28;20393;-68
2024/02/08 11:51:10;;;;;;;5.57;3.53;;;6.80;99.90;;;;;;5072177;28;20477;-68
2024/02/08 11:53:36;;;;;;;4.30;3.00;;;6.80;99.90;;;;;;5071833;28;20566;-68
2024/02/08 11:56:08;;;;;;;5.47;4.00;;;6.80;99.90;;;;;;5065044;28;20971;-68
2024/02/08 11:58:40;;;;;;;7.13;3.93;;;6.80;99.90;;;;;;5051919;28;20889;-68
2024/02/08 12:01:07;;;;;;;5.10;3.53;;;6.80;99.90;;;;;;5052137;28;20449;-68
2024/02/08 12:03:41;;;;;;;9.77;3.83;;;6.80;99.90;;;;;;5051999;28;20471;-68
2024/02/08 12:06:28;;;;;;;4.37;3.30;;;6.90;99.90;;;;;;5051814;28;20543;-68
2024/02/08 12:09:04;;;;;;;4.03;3.07;;;7.00;99.90;;;;;;5051776;28;20484;-69
2024/02/08 12:11:31;;;;;;;4.97;3.80;;;7.10;99.90;;;;;;5051762;28;20432;-66
2024/02/08 12:14:06;;;;;;;5.50;4.10;;;7.30;99.90;;;;;;5056586;28;20922;-66
2024/02/08 12:16:32;;;;;;;7.03;3.63;;;7.20;99.90;;;;;;5071572;28;20433;-66
2024/02/08 12:19:05;;;;;;;5.87;3.60;;;7.20;99.90;;;;;;5071300;28;20408;-66
2024/02/08 12:21:35;;;;;;;5.17;3.33;;;7.30;99.90;;;;;;5071858;28;20428;-66
2024/02/08 12:24:01;;;;;;;6.20;4.27;;;7.40;99.90;;;;;;5071501;28;20440;-68
2024/02/08 12:26:31;;;;;;;5.97;4.07;;;7.20;99.90;;;;;;5071432;28;20504;-67
2024/02/08 12:29:02;;;;;;;6.47;4.77;;;7.30;99.90;;;;;;5071380;28;20771;-67
2024/02/08 12:31:32;;;;;;;7.80;4.57;;;7.30;99.90;;;;;;5071799;28;20416;-67
2024/02/08 12:33:59;;;;;;;5.23;4.67;;;7.20;99.90;;;;;;5071821;28;20408;-67
2024/02/08 12:36:30;;;;;;;5.13;4.27;;;7.20;99.90;;;;;;5070056;28;20467;-67
2024/02/08 12:38:58;;;;;;;6.10;4.40;;;7.20;99.90;;;;;;5065430;28;20469;-67
2024/02/08 12:41:24;;;;;;;6.83;4.70;;;7.30;99.90;;;;;;5071386;28;20503;-67
2024/02/08 12:43:52;;;;;;;10.30;4.97;;;7.30;99.90;;;;;;5071754;28;20436;-67
2024/02/08 12:46:20;;;;;;;5.90;4.63;;;7.40;99.90;;;;;;5071353;28;20487;-67
2024/02/08 12:48:47;;;;;;;5.37;4.47;;;7.40;99.90;;;;;;5071180;28;20408;-67
2024/02/08 12:51:19;;;;;;;7.00;5.07;;;7.50;99.90;;;;;;5071495;28;20474;-67
2024/02/08 12:53:46;;;;;;;7.20;4.93;;;7.70;99.90;;;;;;5071223;28;20919;-67
2024/02/08 12:56:12;;;;;;;6.50;4.90;;;7.80;99.90;;;;;;5071289;28;20519;-67
2024/02/08 12:58:37;;;;;;;9.43;5.37;;;7.90;99.90;;;;;;5064796;28;20448;-68
2024/02/08 13:01:04;;;;;;;6.90;6.07;;;8.00;99.90;;;;;;5071450;28;20178;-67
2024/02/08 13:03:32;;;;;;;5.87;4.83;;;8.00;99.90;;;;;;5071203;28;20217;-67
2024/02/08 13:05:57;;;;;;;6.70;5.93;;;7.90;99.90;;;;;;5071013;28;20527;-67
2024/02/08 13:08:23;;;;;;;8.50;6.23;;;8.00;99.90;;;;;;5070869;28;20492;-67
2024/02/08 13:10:56;;;;;;;8.60;5.97;;;8.20;99.90;;;;;;5071329;28;20182;-67
2024/02/08 13:13:23;;;;;;;6.73;4.60;;;8.30;99.90;;;;;;5071241;28;20177;-67
2024/02/08 13:15:59;;;;;;;10.07;5.57;;;8.50;99.90;;;;;;5071170;28;20612;-67
2024/02/08 13:18:29;;;;;;;5.40;4.90;;;8.50;99.90;;;;;;5071018;28;20821;-67
2024/02/08 13:20:57;;;;;;;5.90;5.40;;;8.60;99.90;;;;;;5071161;28;20397;-67
2024/02/08 13:23:23;;;;;;;7.47;5.40;;;8.50;99.90;;;;;;5070930;28;20952;-67
2024/02/08 13:25:48;;;;;;;8.97;5.87;;;8.50;99.90;;;;;;5074360;28;20428;-67
2024/02/08 13:28:14;;;;;;;6.83;5.67;;;8.60;99.90;;;;;;5074687;28;20555;-67
2024/02/08 13:30:41;;;;;;;7.70;5.57;;;8.50;99.90;;;;;;5074810;28;20167;-67
2024/02/08 13:33:10;;;;;;;9.53;6.50;;;8.50;99.90;;;;;;5074362;28;20926;-67
2024/02/08 13:35:39;;;;;;;7.47;5.83;;;8.50;99.90;;;;;;5062664;28;20439;-67
2024/02/08 13:38:10;;;;;;;6.77;5.50;;;8.70;99.90;;;;;;5063252;28;20413;-67
2024/02/08 13:40:42;;;;;;;7.37;5.17;;;8.80;99.90;;;;;;5074451;28;20416;-67
2024/02/08 13:43:10;;;;;;;7.67;5.67;;;8.90;99.90;;;;;;5074395;28;20504;-67
2024/02/08 13:45:37;;;;;;;8.43;5.47;;;8.90;99.90;;;;;;5074493;28;20466;-67
2024/02/08 13:48:05;;;;;;;7.17;5.70;;;8.90;99.90;;;;;;5074111;28;20481;-67
2024/02/08 13:50:30;;;;;;;7.67;5.63;;;8.90;99.90;;;;;;5074447;28;20511;-67
2024/02/08 13:52:57;;;;;;;8.23;5.30;;;9.00;99.90;;;;;;5074294;28;20515;-67
2024/02/08 13:55:25;;;;;;;9.97;5.97;;;9.00;99.90;;;;;;5074404;28;20163;-67
2024/02/08 13:57:53;;;;;;;6.53;5.80;;;8.90;99.90;;;;;;5070045;28;20420;-66
2024/02/08 14:00:26;;;;;;;9.20;6.23;;;8.90;99.90;;;;;;5073070;28;20829;-66
2024/02/08 14:02:52;;;;;;;9.50;6.50;;;8.80;99.90;;;;;;5075180;28;20846;-66
2024/02/08 14:05:19;;;;;;;7.50;6.30;;;8.80;99.90;;;;;;5074189;28;20440;-66
2024/02/08 14:07:49;;;;;;;7.40;6.10;;;8.70;99.90;;;;;;5074050;28;20285;-67
2024/02/08 14:10:17;;;;;;;8.70;6.53;;;8.70;99.90;;;;;;5073858;28;20416;-67
2024/02/08 14:12:48;;;;;;;8.20;6.07;;;8.70;99.90;;;;;;5074001;28;20489;-67
2024/02/08 14:15:16;;;;;;;10.90;7.17;;;8.70;99.90;;;;;;5073947;28;20810;-67
2024/02/08 14:17:54;;;;;;;7.73;6.80;;;8.70;99.90;;;;;;5073978;28;20819;-67
2024/02/08 14:20:41;;;;;;;7.90;5.90;;;8.70;99.90;;;;;;5073809;28;20404;-67
2024/02/08 14:23:09;;;;;;;6.43;5.10;;;8.80;99.90;;;;;;5073949;28;20414;-66
2024/02/08 14:25:48;;;;;;;10.30;6.50;;;8.80;99.90;;;;;;5072519;28;20847;-66
2024/02/08 14:28:19;;;;;;;9.20;5.40;;;8.70;99.90;;;;;;5072349;28;20763;-66
2024/02/08 14:30:45;;;;;;;7.53;6.00;;;8.60;99.90;;;;;;5074038;28;20393;-67
2024/02/08 14:33:11;;;;;;;9.97;5.70;;;8.60;99.90;;;;;;5074401;28;20408;-66
2024/02/08 14:35:39;;;;;;;11.33;5.60;;;8.50;99.90;;;;;;5072727;28;20802;-66
2024/02/08 14:38:08;;;;;;;6.73;5.57;;;8.50;99.90;;;;;;5073164;28;20189;-67
2024/02/08 14:40:34;;;;;;;6.53;5.30;;;8.40;99.90;;;;;;5073626;28;20813;-67
2024/02/08 14:43:00;;;;;;;6.93;5.23;;;8.40;99.90;;;;;;5073433;28;20902;-67
2024/02/08 14:45:35;;;;;;;8.83;7.30;;;8.50;99.90;;;;;;5073405;28;20425;-67
2024/02/08 14:48:10;;;;;;;7.83;6.73;;;8.50;99.90;;;;;;5073486;28;20439;-66
2024/02/08 14:50:51;;;;;;;7.10;6.40;;;8.50;99.90;;;;;;5073419;28;20403;-66
2024/02/08 14:53:17;;;;;;;7.70;5.50;;;8.50;99.90;;;;;;5073099;28;20519;-66
2024/02/08 14:55:45;;;;;;;5.30;4.73;;;8.50;99.90;;;;;;5073212;28;20515;-66
2024/02/08 14:58:40;;;;;;;6.53;5.03;;;8.50;99.90;;;;;;5071009;28;20174;-66
2024/02/08 15:01:11;;;;;;;7.10;5.07;;;8.60;99.90;;;;;;5072618;28;20416;-66
2024/02/08 15:03:38;;;;;;;6.30;5.10;;;8.60;99.90;;;;;;5073108;28;20457;-66
2024/02/08 15:06:38;;;;;;;8.30;4.83;;;8.70;99.90;;;;;;5072852;28;20463;-66
2024/02/08 15:08:55;;;;;;;9.13;5.20;;;8.70;99.90;;;;;;5072420;28;20848;-66